Time;durP1;ratioP1;P1;durP2;ratioP2;P2;SDS_P1;SDS_P2;PMS_P1;PMS_P2;Temp;Humidity;BMP_temperature;BMP_pressure;BME280_temperature;BME280_humidity;BME280_pressure;Samples;Min_cycle;Max_cycle;Signal;HPM_P1;HPM_P2
2021/12/05 00:18:31;;;;;;;0.70;0.70;;;;;;;;;;5125260;28;20220;-64
2021/12/05 00:24:26;;;;;;;0.60;0.60;;;;;;;;;;5126956;28;20204;-64
2021/12/05 00:27:19;;;;;;;0.60;0.60;;;;;;;;;;5126122;28;20228;-64
2021/12/05 00:30:23;;;;;;;0.63;0.63;;;;;;;;;;5125617;28;20191;-64
2021/12/05 00:33:29;;;;;;;0.63;0.63;;;;;;;;;;5111699;28;20209;-64
2021/12/05 00:39:46;;;;;;;0.70;0.70;;;;;;;;;;5112319;28;20252;-64
2021/12/05 00:45:59;;;;;;;0.60;0.60;;;;;;;;;;5085676;28;20210;-64
2021/12/05 00:55:34;;;;;;;0.50;0.50;;;;;;;;;;5111815;28;20197;-64
2021/12/05 00:59:04;;;;;;;0.53;0.53;;;;;;;;;;5111906;28;20687;-64
2021/12/05 01:02:10;;;;;;;0.67;0.67;;;;;;;;;;5110532;28;20226;-64
2021/12/05 01:05:21;;;;;;;0.60;0.60;;;;;;;;;;5110823;28;20221;-64
2021/12/05 01:08:21;;;;;;;0.70;0.70;;;;;;;;;;5111997;28;20570;-64
2021/12/05 01:14:28;;;;;;;0.50;0.50;;;;;;;;;;5111796;28;20580;-65
2021/12/05 01:17:19;;;;;;;0.70;0.70;;;;;;;;;;5111489;28;20282;-64
2021/12/05 01:20:10;;;;;;;0.50;0.50;;;;;;;;;;5111564;28;20247;-64
2021/12/05 01:23:05;;;;;;;0.67;0.67;;;;;;;;;;5111789;28;20202;-64
2021/12/05 01:25:54;;;;;;;0.40;0.40;;;;;;;;;;5112607;28;20205;-64
2021/12/05 01:31:56;;;;;;;0.40;0.40;;;;;;;;;;5090771;28;20212;-64
2021/12/05 01:34:59;;;;;;;0.50;0.50;;;;;;;;;;5091436;28;20282;-64
2021/12/05 01:38:00;;;;;;;0.47;0.47;;;;;;;;;;5091698;28;20332;-64
2021/12/05 01:41:03;;;;;;;0.63;0.63;;;;;;;;;;5103383;28;20598;-64
2021/12/05 01:53:29;;;;;;;0.67;0.67;;;;;;;;;;5112053;28;20246;-64
2021/12/05 02:02:59;;;;;;;0.40;0.40;;;;;;;;;;5110044;28;20242;-64
2021/12/05 02:09:06;;;;;;;0.70;0.70;;;;;;;;;;5110289;28;20206;-65
2021/12/05 02:30:39;;;;;;;0.60;0.60;;;;;;;;;;5089834;28;20198;-64
2021/12/05 02:33:49;;;;;;;0.70;0.70;;;;;;;;;;5090181;28;20674;-64
2021/12/05 02:39:53;;;;;;;0.60;0.60;;;;;;;;;;5093416;28;20753;-64
2021/12/05 02:42:47;;;;;;;0.50;0.50;;;;;;;;;;5110046;28;20202;-65
2021/12/05 02:45:37;;;;;;;0.50;0.50;;;;;;;;;;5110407;28;20197;-64
2021/12/05 02:48:26;;;;;;;0.73;0.73;;;;;;;;;;5110742;28;20246;-64
2021/12/05 02:51:17;;;;;;;0.50;0.50;;;;;;;;;;5108830;28;20245;-64
2021/12/05 02:54:10;;;;;;;0.60;0.60;;;;;;;;;;5110223;28;20238;-64
2021/12/05 02:56:59;;;;;;;0.60;0.60;;;;;;;;;;5109868;28;20592;-65
2021/12/05 02:59:50;;;;;;;0.60;0.60;;;;;;;;;;5109033;28;20198;-64
2021/12/05 03:02:41;;;;;;;0.70;0.70;;;;;;;;;;5109256;28;20202;-65
2021/12/05 03:05:29;;;;;;;0.60;0.60;;;;;;;;;;5107824;28;20233;-65
2021/12/05 03:08:16;;;;;;;0.53;0.53;;;;;;;;;;5109277;28;20208;-64
2021/12/05 03:11:06;;;;;;;0.60;0.60;;;;;;;;;;5109681;28;20202;-64
2021/12/05 03:13:53;;;;;;;0.70;0.70;;;;;;;;;;5108746;28;20689;-64
2021/12/05 03:16:41;;;;;;;0.60;0.60;;;;;;;;;;5109916;28;20229;-64
2021/12/05 03:19:28;;;;;;;0.60;0.60;;;;;;;;;;5109575;28;20284;-64
2021/12/05 03:22:15;;;;;;;0.70;0.70;;;;;;;;;;5108982;28;20308;-64
2021/12/05 03:25:03;;;;;;;0.57;0.57;;;;;;;;;;5097729;28;20319;-64
2021/12/05 03:27:52;;;;;;;0.73;0.73;;;;;;;;;;5089332;28;20353;-64
2021/12/05 03:30:39;;;;;;;0.57;0.57;;;;;;;;;;5088511;28;20275;-64
2021/12/05 03:33:26;;;;;;;0.70;0.70;;;;;;;;;;5090011;28;20226;-65
2021/12/05 03:36:13;;;;;;;0.70;0.70;;;;;;;;;;5104041;28;20716;-64
2021/12/05 03:39:02;;;;;;;0.70;0.70;;;;;;;;;;5096615;28;20197;-64
2021/12/05 03:41:52;;;;;;;0.70;0.70;;;;;;;;;;5090236;28;20230;-64
2021/12/05 03:44:41;;;;;;;0.60;0.60;;;;;;;;;;5103546;28;20220;-64
2021/12/05 03:47:30;;;;;;;0.80;0.80;;;;;;;;;;5109747;28;20705;-65
2021/12/05 03:50:17;;;;;;;0.50;0.50;;;;;;;;;;5089511;28;20202;-64
2021/12/05 03:53:06;;;;;;;0.63;0.63;;;;;;;;;;5103971;28;20648;-64
2021/12/05 03:55:55;;;;;;;0.70;0.70;;;;;;;;;;5108288;28;20260;-64
2021/12/05 03:58:42;;;;;;;0.70;0.70;;;;;;;;;;5104398;28;20577;-64
2021/12/05 04:01:30;;;;;;;0.80;0.80;;;;;;;;;;5087566;28;20297;-64
2021/12/05 04:04:18;;;;;;;0.57;0.57;;;;;;;;;;5097838;28;20727;-64
2021/12/05 04:07:05;;;;;;;0.50;0.50;;;;;;;;;;5111007;28;20206;-64
2021/12/05 04:09:52;;;;;;;0.83;0.83;;;;;;;;;;5109133;28;20788;-64
2021/12/05 04:12:39;;;;;;;0.80;0.80;;;;;;;;;;5092923;28;20758;-64
2021/12/05 04:15:26;;;;;;;0.70;0.70;;;;;;;;;;5093266;28;20663;-66
2021/12/05 04:18:15;;;;;;;0.70;0.70;;;;;;;;;;5091959;28;20315;-64
2021/12/05 04:21:03;;;;;;;0.73;0.73;;;;;;;;;;5091400;28;20793;-64
2021/12/05 04:23:50;;;;;;;0.70;0.70;;;;;;;;;;5092549;28;20221;-64
2021/12/05 04:26:39;;;;;;;0.87;0.87;;;;;;;;;;5092501;28;20283;-66
2021/12/05 04:29:26;;;;;;;0.60;0.60;;;;;;;;;;5092553;28;20696;-64
2021/12/05 04:32:13;;;;;;;0.90;0.90;;;;;;;;;;5091388;28;20331;-64
2021/12/05 04:35:01;;;;;;;0.90;0.90;;;;;;;;;;5093359;28;20687;-64
2021/12/05 04:37:49;;;;;;;0.80;0.80;;;;;;;;;;5093009;28;20210;-63
2021/12/05 04:40:36;;;;;;;0.60;0.60;;;;;;;;;;5102843;28;20742;-64
2021/12/05 04:43:23;;;;;;;0.90;0.90;;;;;;;;;;5111808;28;20197;-65
2021/12/05 04:46:13;;;;;;;0.90;0.90;;;;;;;;;;5112368;28;20343;-64
2021/12/05 04:49:00;;;;;;;0.80;0.80;;;;;;;;;;5105696;28;20211;-64
2021/12/05 04:51:48;;;;;;;0.97;0.97;;;;;;;;;;5092260;28;20203;-64
2021/12/05 04:54:36;;;;;;;0.70;0.70;;;;;;;;;;5092151;28;20689;-64
2021/12/05 04:57:23;;;;;;;0.70;0.70;;;;;;;;;;5092534;28;20244;-64
2021/12/05 05:00:15;;;;;;;0.70;0.70;;;;;;;;;;5092169;28;20291;-65
2021/12/05 05:03:02;;;;;;;0.93;0.93;;;;;;;;;;5094096;28;20221;-64
2021/12/05 05:05:53;;;;;;;1.00;1.00;;;;;;;;;;5109590;28;20198;-64
2021/12/05 05:08:42;;;;;;;0.93;0.93;;;;;;;;;;5111606;28;20206;-64
2021/12/05 05:11:29;;;;;;;1.20;1.20;;;;;;;;;;5112075;28;20244;-64
2021/12/05 05:14:17;;;;;;;1.00;1.00;;;;;;;;;;5110922;28;20243;-64
2021/12/05 05:17:04;;;;;;;1.30;1.20;;;;;;;;;;5110903;28;20227;-64
2021/12/05 05:19:55;;;;;;;1.20;1.20;;;;;;;;;;5112831;28;20797;-64
2021/12/05 05:22:48;;;;;;;1.23;1.20;;;;;;;;;;5112393;28;20245;-64
2021/12/05 05:26:15;;;;;;;1.20;1.20;;;;;;;;;;5112346;28;20222;-64
2021/12/05 05:47:33;;;;;;;1.00;1.00;;;;;;;;;;5110956;28;20234;-65
2021/12/05 05:50:23;;;;;;;0.90;0.90;;;;;;;;;;5111646;28;20292;-64
2021/12/05 05:53:10;;;;;;;0.90;0.90;;;;;;;;;;5111098;28;20295;-64
2021/12/05 05:55:57;;;;;;;1.00;1.00;;;;;;;;;;5111274;28;20229;-64
2021/12/05 05:58:49;;;;;;;0.90;0.90;;;;;;;;;;5103736;28;20204;-65
2021/12/05 06:02:02;;;;;;;0.80;0.80;;;;;;;;;;5110212;28;20214;-65
2021/12/05 06:04:49;;;;;;;0.80;0.80;;;;;;;;;;5110267;28;20282;-64
2021/12/05 06:07:42;;;;;;;0.80;0.80;;;;;;;;;;5111892;28;20273;-64
2021/12/05 06:10:32;;;;;;;0.90;0.90;;;;;;;;;;5109898;28;20209;-65
2021/12/05 06:13:19;;;;;;;0.83;0.83;;;;;;;;;;5111859;28;20235;-64
2021/12/05 06:16:08;;;;;;;1.00;1.00;;;;;;;;;;5109650;28;20201;-64
2021/12/05 06:18:55;;;;;;;1.40;1.30;;;;;;;;;;5110811;28;20211;-64
2021/12/05 06:21:42;;;;;;;1.40;1.30;;;;;;;;;;5109812;28;20283;-64
2021/12/05 06:24:29;;;;;;;1.10;1.10;;;;;;;;;;5110111;28;20611;-64
2021/12/05 06:27:16;;;;;;;0.80;0.80;;;;;;;;;;5110345;28;20209;-64
2021/12/05 06:30:10;;;;;;;1.07;1.07;;;;;;;;;;5090336;28;20206;-64
2021/12/05 06:39:23;;;;;;;1.33;1.30;;;;;;;;;;5089963;28;20690;-64
2021/12/05 06:42:45;;;;;;;1.13;1.13;;;;;;;;;;5090022;28;20220;-65
2021/12/05 06:48:35;;;;;;;1.40;1.30;;;;;;;;;;5085320;28;20260;-64
2021/12/05 06:51:24;;;;;;;1.07;1.07;;;;;;;;;;5090298;28;20256;-64
2021/12/05 06:54:11;;;;;;;1.00;1.00;;;;;;;;;;5089577;28;20205;-64
2021/12/05 06:56:58;;;;;;;1.20;1.20;;;;;;;;;;5088999;28;20256;-64
2021/12/05 06:59:48;;;;;;;1.40;1.40;;;;;;;;;;5088902;28;20226;-64
2021/12/05 07:02:35;;;;;;;1.20;1.20;;;;;;;;;;5088316;28;20749;-64
2021/12/05 07:08:31;;;;;;;0.90;0.90;;;;;;;;;;5109955;28;20209;-64
2021/12/05 07:11:22;;;;;;;1.10;1.10;;;;;;;;;;5110807;28;20206;-64
2021/12/05 07:14:31;;;;;;;1.20;1.20;;;;;;;;;;5109384;28;20241;-64
2021/12/05 07:20:27;;;;;;;1.00;1.00;;;;;;;;;;5109296;28;20234;-64
2021/12/05 07:23:28;;;;;;;1.00;1.00;;;;;;;;;;5108530;28;20260;-64
2021/12/05 07:26:21;;;;;;;0.80;0.80;;;;;;;;;;5109148;28;20287;-64
2021/12/05 07:41:45;;;;;;;1.10;1.10;;;;;;;;;;5109911;28;20206;-64
2021/12/05 07:44:33;;;;;;;0.80;0.80;;;;;;;;;;5114518;28;20277;-64
2021/12/05 07:47:23;;;;;;;1.23;1.20;;;;;;;;;;5113253;28;20201;-64
2021/12/05 07:50:11;;;;;;;0.90;0.90;;;;;;;;;;5113680;28;20287;-64
2021/12/05 07:53:06;;;;;;;1.00;1.00;;;;;;;;;;5113406;28;20286;-64
2021/12/05 07:55:59;;;;;;;0.87;0.87;;;;;;;;;;5113878;28;20202;-64
2021/12/05 07:59:09;;;;;;;0.90;0.90;;;;;;;;;;5113883;28;20291;-64
2021/12/05 08:14:34;;;;;;;1.17;1.10;;;;;;;;;;5110745;28;20197;-64
2021/12/05 08:17:21;;;;;;;0.90;0.90;;;;;;;;;;5108315;28;20201;-64
2021/12/05 08:20:11;;;;;;;0.90;0.90;;;;;;;;;;5105398;28;20589;-65
2021/12/05 08:23:00;;;;;;;0.90;0.90;;;;;;;;;;5094010;28;20308;-64
2021/12/05 08:25:56;;;;;;;1.00;1.00;;;;;;;;;;5092352;28;20218;-64
2021/12/05 08:29:02;;;;;;;1.00;1.00;;;;;;;;;;5091988;28;20705;-64
2021/12/05 08:32:07;;;;;;;1.23;1.20;;;;;;;;;;5092638;28;20250;-64
2021/12/05 08:35:10;;;;;;;1.23;1.13;;;;;;;;;;5092669;28;20198;-64
2021/12/05 09:21:45;;;;;;;1.13;1.13;;;;;;;;;;5111332;28;20233;-64
2021/12/05 09:24:44;;;;;;;0.83;0.83;;;;;;;;;;5111747;28;20202;-64
2021/12/05 09:27:55;;;;;;;1.00;1.00;;;;;;;;;;5091177;28;20293;-65
2021/12/05 09:30:58;;;;;;;0.77;0.77;;;;;;;;;;5090502;28;20195;-65
2021/12/05 09:40:34;;;;;;;1.10;1.10;;;;;;;;;;5036402;28;20206;-64
2021/12/05 10:11:26;;;;;;;0.90;0.90;;;;;;;;;;5080777;28;20237;-64
2021/12/05 10:14:31;;;;;;;0.73;0.73;;;;;;;;;;5102369;28;20199;-65
2021/12/05 10:17:40;;;;;;;0.90;0.90;;;;;;;;;;5090998;28;20217;-64
2021/12/05 10:26:07;;;;;;;0.90;0.90;;;;;;;;;;5089478;28;20728;-65
2021/12/05 10:27:13;;;;;;;0.80;0.80;;;;;;;;;;5089909;28;20202;-65
2021/12/05 10:36:19;;;;;;;0.70;0.70;;;;;;;;;;5090040;28;20206;-64
2021/12/05 10:39:11;;;;;;;0.60;0.60;;;;;;;;;;5108595;28;21110;-64
2021/12/05 10:42:13;;;;;;;1.00;1.00;;;;;;;;;;5108213;28;20209;-65
2021/12/05 10:45:00;;;;;;;0.80;0.80;;;;;;;;;;5089696;28;20666;-64
2021/12/05 10:47:49;;;;;;;0.60;0.60;;;;;;;;;;5090743;28;20222;-64
2021/12/05 10:50:42;;;;;;;0.80;0.80;;;;;;;;;;5091038;28;20215;-64
2021/12/05 10:53:34;;;;;;;0.80;0.80;;;;;;;;;;5091256;28;20225;-64
2021/12/05 10:56:23;;;;;;;0.80;0.80;;;;;;;;;;5090847;28;20678;-65
2021/12/05 10:59:13;;;;;;;0.70;0.70;;;;;;;;;;5090741;28;20234;-64
2021/12/05 11:02:03;;;;;;;0.80;0.80;;;;;;;;;;5089784;28;20227;-63
2021/12/05 11:04:50;;;;;;;0.70;0.70;;;;;;;;;;5101236;28;20304;-64
2021/12/05 11:07:39;;;;;;;0.70;0.70;;;;;;;;;;5106975;28;20625;-65
2021/12/05 11:10:26;;;;;;;0.67;0.67;;;;;;;;;;5097021;28;20211;-64
2021/12/05 11:13:27;;;;;;;0.60;0.60;;;;;;;;;;5090929;28;20260;-65
2021/12/05 11:16:36;;;;;;;0.70;0.70;;;;;;;;;;5109433;28;20727;-64
2021/12/05 11:19:27;;;;;;;0.70;0.70;;;;;;;;;;5109426;28;20256;-64
2021/12/05 11:22:18;;;;;;;1.07;0.97;;;;;;;;;;5110130;28;20251;-64
2021/12/05 11:25:09;;;;;;;0.50;0.50;;;;;;;;;;5105282;28;20649;-65
2021/12/05 11:27:58;;;;;;;0.70;0.70;;;;;;;;;;5099606;28;20223;-64
2021/12/05 11:30:47;;;;;;;0.50;0.50;;;;;;;;;;5091026;28;20239;-64
2021/12/05 11:33:45;;;;;;;0.57;0.57;;;;;;;;;;5096309;28;20289;-64
2021/12/05 11:36:35;;;;;;;0.70;0.70;;;;;;;;;;5109122;28;20690;-64
2021/12/05 11:39:24;;;;;;;0.70;0.70;;;;;;;;;;5094014;28;20352;-64
2021/12/05 11:42:17;;;;;;;0.57;0.57;;;;;;;;;;5087605;28;20367;-64
2021/12/05 11:45:06;;;;;;;0.80;0.80;;;;;;;;;;5108674;28;20576;-65
2021/12/05 11:47:53;;;;;;;0.63;0.63;;;;;;;;;;5085889;28;20546;-64
2021/12/05 11:50:41;;;;;;;1.03;1.03;;;;;;;;;;5102792;28;20200;-64
2021/12/05 11:53:42;;;;;;;2.00;1.10;;;;;;;;;;5089306;28;20283;-64
2021/12/05 11:56:42;;;;;;;1.00;1.00;;;;;;;;;;5089059;28;20354;-64
2021/12/05 11:59:35;;;;;;;1.67;1.40;;;;;;;;;;5090254;28;20729;-65
2021/12/05 12:02:28;;;;;;;1.20;1.20;;;;;;;;;;5107243;28;20211;-64
2021/12/05 12:05:19;;;;;;;1.40;1.30;;;;;;;;;;5105121;28;20306;-64
2021/12/05 12:08:12;;;;;;;1.00;1.00;;;;;;;;;;5100126;28;20658;-65
2021/12/05 12:11:02;;;;;;;1.10;1.10;;;;;;;;;;5103539;28;20209;-64
2021/12/05 12:13:50;;;;;;;1.40;1.30;;;;;;;;;;5108649;28;20203;-64
2021/12/05 12:16:38;;;;;;;1.30;1.20;;;;;;;;;;5109542;28;20203;-66
2021/12/05 12:19:26;;;;;;;1.20;1.20;;;;;;;;;;5104564;28;20199;-64
2021/12/05 12:22:14;;;;;;;0.90;0.90;;;;;;;;;;5105682;28;20203;-64
2021/12/05 12:25:04;;;;;;;1.40;1.30;;;;;;;;;;5105768;28;20199;-65
2021/12/05 12:27:51;;;;;;;1.20;1.20;;;;;;;;;;5089685;28;20263;-64
2021/12/05 12:30:43;;;;;;;1.47;1.40;;;;;;;;;;5107757;28;20674;-64
2021/12/05 12:33:34;;;;;;;1.23;1.23;;;;;;;;;;5112779;28;20277;-64
2021/12/05 12:36:33;;;;;;;1.30;1.30;;;;;;;;;;5106897;28;20264;-64
2021/12/05 12:39:32;;;;;;;1.10;1.10;;;;;;;;;;5107483;28;20277;-65
2021/12/05 12:42:23;;;;;;;0.93;0.93;;;;;;;;;;5110156;28;20204;-64
2021/12/05 12:45:18;;;;;;;1.07;1.07;;;;;;;;;;5093181;28;20289;-64
2021/12/05 12:48:11;;;;;;;1.50;1.40;;;;;;;;;;5112579;28;20230;-64
2021/12/05 12:50:59;;;;;;;1.10;1.10;;;;;;;;;;5112988;28;20252;-64
2021/12/05 12:53:53;;;;;;;0.90;0.90;;;;;;;;;;5111583;28;20207;-64
2021/12/05 12:56:42;;;;;;;1.00;1.00;;;;;;;;;;5111820;28;20278;-64
2021/12/05 12:59:31;;;;;;;1.20;1.20;;;;;;;;;;5111484;28;20199;-64
2021/12/05 13:02:29;;;;;;;0.90;0.90;;;;;;;;;;5103374;28;20696;-64
2021/12/05 13:05:40;;;;;;;0.80;0.80;;;;;;;;;;5111044;28;20219;-64
2021/12/05 13:11:47;;;;;;;0.93;0.93;;;;;;;;;;5112381;28;20210;-64
2021/12/05 13:14:34;;;;;;;0.90;0.90;;;;;;;;;;5111205;28;20193;-64
2021/12/05 13:17:40;;;;;;;1.10;1.10;;;;;;;;;;5112154;28;20194;-64
2021/12/05 13:20:54;;;;;;;1.00;1.00;;;;;;;;;;5101122;28;21056;-64
2021/12/05 13:23:45;;;;;;;0.73;0.73;;;;;;;;;;5091833;28;20226;-65
2021/12/05 13:26:39;;;;;;;0.90;0.90;;;;;;;;;;5087955;28;20206;-64
2021/12/05 13:29:27;;;;;;;0.80;0.80;;;;;;;;;;5091340;28;20209;-64
2021/12/05 13:32:18;;;;;;;1.10;1.10;;;;;;;;;;5091485;28;20199;-64
2021/12/05 13:35:10;;;;;;;0.90;0.90;;;;;;;;;;5086409;28;20572;-64
2021/12/05 13:37:57;;;;;;;0.70;0.70;;;;;;;;;;5092675;28;20670;-64
2021/12/05 13:40:46;;;;;;;1.00;1.00;;;;;;;;;;5079423;28;20215;-64
2021/12/05 13:43:33;;;;;;;0.90;0.90;;;;;;;;;;5079266;28;20228;-64
2021/12/05 13:46:38;;;;;;;0.90;0.90;;;;;;;;;;5090506;28;20236;-64
2021/12/05 13:49:35;;;;;;;0.97;0.97;;;;;;;;;;5090723;28;20686;-65
2021/12/05 13:52:30;;;;;;;0.90;0.90;;;;;;;;;;5090252;28;20199;-64
2021/12/05 13:55:39;;;;;;;0.87;0.87;;;;;;;;;;5090341;28;20213;-64
2021/12/05 13:58:36;;;;;;;0.80;0.80;;;;;;;;;;5071320;28;20199;-64
2021/12/05 14:01:26;;;;;;;1.10;1.10;;;;;;;;;;5077887;28;20207;-64
2021/12/05 14:04:28;;;;;;;0.60;0.60;;;;;;;;;;5082299;28;20307;-64
2021/12/05 14:07:19;;;;;;;0.83;0.83;;;;;;;;;;5085402;28;20211;-64
2021/12/05 14:10:09;;;;;;;0.80;0.80;;;;;;;;;;5088481;28;20205;-64
2021/12/05 14:12:56;;;;;;;0.80;0.80;;;;;;;;;;5084537;28;20704;-64
2021/12/05 14:15:45;;;;;;;0.90;0.90;;;;;;;;;;5070994;28;20258;-64
2021/12/05 14:18:32;;;;;;;0.83;0.83;;;;;;;;;;5083121;28;20768;-64
2021/12/05 14:21:20;;;;;;;0.90;0.90;;;;;;;;;;5083847;28;21094;-64
2021/12/05 14:24:07;;;;;;;0.77;0.77;;;;;;;;;;5078098;28;20292;-64
2021/12/05 14:26:59;;;;;;;0.90;0.90;;;;;;;;;;5080269;28;20274;-64
2021/12/05 14:29:48;;;;;;;0.87;0.87;;;;;;;;;;5081604;28;20233;-64
2021/12/05 14:32:38;;;;;;;0.63;0.63;;;;;;;;;;5086262;28;20208;-64
2021/12/05 14:35:29;;;;;;;1.00;1.00;;;;;;;;;;5083611;28;20201;-64
2021/12/05 14:38:16;;;;;;;0.83;0.80;;;;;;;;;;5090186;28;20195;-64
2021/12/05 14:41:03;;;;;;;0.70;0.70;;;;;;;;;;5089842;28;20645;-65
2021/12/05 14:43:56;;;;;;;0.60;0.60;;;;;;;;;;5089375;28;20234;-64
2021/12/05 14:46:57;;;;;;;1.00;1.00;;;;;;;;;;5089149;28;20215;-64
2021/12/05 14:49:50;;;;;;;0.70;0.70;;;;;;;;;;5082082;28;20206;-65
2021/12/05 14:52:39;;;;;;;0.80;0.80;;;;;;;;;;5089187;28;20267;-65
2021/12/05 14:55:28;;;;;;;0.70;0.70;;;;;;;;;;5090274;28;20566;-64
2021/12/05 14:58:16;;;;;;;0.80;0.80;;;;;;;;;;5089977;28;20198;-64
2021/12/05 15:01:04;;;;;;;0.90;0.90;;;;;;;;;;5089462;28;20232;-64
2021/12/05 15:03:51;;;;;;;0.90;0.90;;;;;;;;;;5084069;28;20717;-64
2021/12/05 15:06:42;;;;;;;0.70;0.70;;;;;;;;;;5085711;28;20199;-64
2021/12/05 15:09:32;;;;;;;0.70;0.70;;;;;;;;;;5088684;28;20226;-65
2021/12/05 15:12:23;;;;;;;0.60;0.60;;;;;;;;;;5069276;28;20274;-64
2021/12/05 15:15:12;;;;;;;0.73;0.73;;;;;;;;;;5070236;28;20231;-64
2021/12/05 15:17:59;;;;;;;0.80;0.80;;;;;;;;;;5089107;28;20206;-65
2021/12/05 15:20:48;;;;;;;0.53;0.53;;;;;;;;;;5088102;28;20321;-64
2021/12/05 15:23:40;;;;;;;0.80;0.80;;;;;;;;;;5088808;28;20253;-64
2021/12/05 15:26:33;;;;;;;0.63;0.63;;;;;;;;;;5088537;28;20678;-64
2021/12/05 15:29:21;;;;;;;0.50;0.50;;;;;;;;;;5088886;28;20210;-64
2021/12/05 15:32:16;;;;;;;0.70;0.70;;;;;;;;;;5088334;28;20252;-64
2021/12/05 15:35:07;;;;;;;0.60;0.60;;;;;;;;;;5088872;28;20288;-64
2021/12/05 15:37:57;;;;;;;0.50;0.50;;;;;;;;;;5088334;28;20210;-64
2021/12/05 15:40:47;;;;;;;0.60;0.60;;;;;;;;;;5072711;28;20290;-64
2021/12/05 15:43:37;;;;;;;0.60;0.60;;;;;;;;;;5076349;28;20205;-64
2021/12/05 15:46:28;;;;;;;0.70;0.70;;;;;;;;;;5088570;28;20222;-64
2021/12/05 15:49:15;;;;;;;0.80;0.80;;;;;;;;;;5087815;28;20214;-63
2021/12/05 15:52:02;;;;;;;0.70;0.70;;;;;;;;;;5088042;28;20254;-64
2021/12/05 15:54:50;;;;;;;0.60;0.60;;;;;;;;;;5088128;28;20237;-64
2021/12/05 15:57:42;;;;;;;0.90;0.90;;;;;;;;;;5088589;28;20209;-64
2021/12/05 16:00:32;;;;;;;1.03;1.03;;;;;;;;;;5089496;28;20203;-65
2021/12/05 16:03:23;;;;;;;0.87;0.87;;;;;;;;;;5088660;28;20273;-64
2021/12/05 16:06:13;;;;;;;0.80;0.80;;;;;;;;;;5085923;28;20271;-64
2021/12/05 16:09:11;;;;;;;0.67;0.67;;;;;;;;;;5092832;28;20202;-65
2021/12/05 16:12:08;;;;;;;0.80;0.80;;;;;;;;;;5092509;28;20234;-65
2021/12/05 16:15:03;;;;;;;0.90;0.90;;;;;;;;;;5092434;28;20736;-64
2021/12/05 16:17:56;;;;;;;0.83;0.83;;;;;;;;;;5091846;28;20666;-64
2021/12/05 16:20:45;;;;;;;0.80;0.80;;;;;;;;;;5102997;28;20260;-64
2021/12/05 16:23:32;;;;;;;0.80;0.80;;;;;;;;;;5092509;28;20191;-64
2021/12/05 16:26:23;;;;;;;0.80;0.80;;;;;;;;;;5101315;27;20300;-64
2021/12/05 16:29:12;;;;;;;0.87;0.87;;;;;;;;;;5095492;28;20218;-64
2021/12/05 16:32:01;;;;;;;0.80;0.80;;;;;;;;;;5102548;28;20661;-65
2021/12/05 16:34:49;;;;;;;0.67;0.67;;;;;;;;;;5109362;27;20688;-65
2021/12/05 16:37:39;;;;;;;0.77;0.77;;;;;;;;;;5090030;28;20194;-64
2021/12/05 16:40:27;;;;;;;0.83;0.83;;;;;;;;;;5092070;28;20238;-64
2021/12/05 16:43:17;;;;;;;0.70;0.70;;;;;;;;;;5110977;28;20257;-64
2021/12/05 16:46:12;;;;;;;0.90;0.90;;;;;;;;;;5110473;28;20206;-64
2021/12/05 16:49:04;;;;;;;0.90;0.90;;;;;;;;;;5110113;28;20293;-64
2021/12/05 16:51:53;;;;;;;0.90;0.90;;;;;;;;;;5109182;28;20743;-64
2021/12/05 16:54:48;;;;;;;1.00;1.00;;;;;;;;;;5109814;28;20558;-64
2021/12/05 16:57:43;;;;;;;0.73;0.73;;;;;;;;;;5110901;28;20198;-64
2021/12/05 17:00:31;;;;;;;1.30;1.20;;;;;;;;;;5110115;28;20565;-64
2021/12/05 17:03:20;;;;;;;1.00;1.00;;;;;;;;;;5096933;28;20661;-64
2021/12/05 17:06:10;;;;;;;0.83;0.83;;;;;;;;;;5101588;28;20229;-64
2021/12/05 17:08:58;;;;;;;1.50;0.80;;;;;;;;;;5106362;28;20289;-64
2021/12/05 17:11:45;;;;;;;0.97;0.97;;;;;;;;;;5109009;28;20291;-64
2021/12/05 17:14:32;;;;;;;1.07;1.07;;;;;;;;;;5110695;28;20229;-64
2021/12/05 17:17:31;;;;;;;0.80;0.80;;;;;;;;;;5101370;28;20206;-64
2021/12/05 17:20:21;;;;;;;0.80;0.80;;;;;;;;;;5111140;28;20234;-64
2021/12/05 17:23:12;;;;;;;0.90;0.90;;;;;;;;;;5111201;28;20285;-64
2021/12/05 17:26:12;;;;;;;0.90;0.90;;;;;;;;;;5110964;28;20686;-64
2021/12/05 17:29:04;;;;;;;0.67;0.67;;;;;;;;;;5110944;28;20278;-64
2021/12/05 17:31:54;;;;;;;0.80;0.80;;;;;;;;;;5110927;28;20251;-64
2021/12/05 17:34:44;;;;;;;0.63;0.63;;;;;;;;;;5108530;28;20234;-64
2021/12/05 17:37:33;;;;;;;0.90;0.90;;;;;;;;;;5111406;28;20622;-64
2021/12/05 17:40:21;;;;;;;0.90;0.90;;;;;;;;;;5110908;28;20252;-64
2021/12/05 17:43:08;;;;;;;0.80;0.80;;;;;;;;;;5110026;28;20733;-64
2021/12/05 17:45:56;;;;;;;0.90;0.90;;;;;;;;;;5111345;28;20296;-65
2021/12/05 17:48:43;;;;;;;0.90;0.90;;;;;;;;;;5111968;28;20254;-65
2021/12/05 17:51:36;;;;;;;0.90;0.90;;;;;;;;;;5111042;28;20549;-65
2021/12/05 17:54:30;;;;;;;0.80;0.80;;;;;;;;;;5111283;28;20678;-63
2021/12/05 17:57:30;;;;;;;0.70;0.70;;;;;;;;;;5111238;28;20271;-64
2021/12/05 18:00:22;;;;;;;0.73;0.73;;;;;;;;;;5111616;28;20696;-64
2021/12/05 18:03:11;;;;;;;0.80;0.80;;;;;;;;;;5108539;28;20195;-64
2021/12/05 18:05:58;;;;;;;0.80;0.80;;;;;;;;;;5100742;28;20229;-64
2021/12/05 18:08:47;;;;;;;0.90;0.90;;;;;;;;;;5106338;28;20298;-64
2021/12/05 18:11:35;;;;;;;0.80;0.80;;;;;;;;;;5105398;28;20229;-64
2021/12/05 18:14:24;;;;;;;0.93;0.93;;;;;;;;;;5109109;28;20207;-63
2021/12/05 18:17:11;;;;;;;0.83;0.83;;;;;;;;;;5104951;28;20214;-64
2021/12/05 18:19:58;;;;;;;1.73;0.83;;;;;;;;;;5099524;28;20233;-64
2021/12/05 18:22:46;;;;;;;0.90;0.90;;;;;;;;;;5104822;28;20562;-65
2021/12/05 18:25:34;;;;;;;0.80;0.80;;;;;;;;;;5107081;28;20257;-64
2021/12/05 18:28:21;;;;;;;0.83;0.83;;;;;;;;;;5096741;28;20206;-64
2021/12/05 18:31:16;;;;;;;1.13;1.13;;;;;;;;;;5107427;28;20320;-64
2021/12/05 18:34:06;;;;;;;0.93;0.93;;;;;;;;;;5108914;28;20201;-64
2021/12/05 18:36:54;;;;;;;1.10;1.10;;;;;;;;;;5099421;28;20202;-64
2021/12/05 18:39:44;;;;;;;0.97;0.97;;;;;;;;;;5110016;28;20680;-64
2021/12/05 18:42:31;;;;;;;1.20;1.20;;;;;;;;;;5103663;28;20287;-64
2021/12/05 18:45:21;;;;;;;1.50;1.40;;;;;;;;;;5096635;28;20237;-64
2021/12/05 18:48:10;;;;;;;1.10;1.10;;;;;;;;;;5106208;28;20198;-64
2021/12/05 18:50:58;;;;;;;1.10;1.10;;;;;;;;;;5109233;28;20275;-64
2021/12/05 18:53:45;;;;;;;1.23;1.17;;;;;;;;;;5090113;28;20207;-64
2021/12/05 18:56:34;;;;;;;1.33;1.30;;;;;;;;;;5089838;28;20206;-64
2021/12/05 18:59:22;;;;;;;1.10;1.10;;;;;;;;;;5108900;28;20209;-64
2021/12/05 19:05:27;;;;;;;1.30;1.30;;;;;;;;;;5106433;28;20234;-64
2021/12/05 19:08:36;;;;;;;1.30;1.30;;;;;;;;;;5090417;28;20208;-64
2021/12/05 19:11:44;;;;;;;1.30;1.30;;;;;;;;;;5105234;28;20294;-64
2021/12/05 19:14:33;;;;;;;1.30;1.30;;;;;;;;;;5106848;28;20206;-64
2021/12/05 19:17:23;;;;;;;1.33;1.30;;;;;;;;;;5109486;28;20263;-64
2021/12/05 19:20:14;;;;;;;1.53;1.50;;;;;;;;;;5108746;28;20238;-64
2021/12/05 19:23:03;;;;;;;1.20;1.20;;;;;;;;;;5103286;28;20282;-64
2021/12/05 19:25:50;;;;;;;1.17;1.17;;;;;;;;;;5089218;28;20230;-64
2021/12/05 19:28:37;;;;;;;1.20;1.20;;;;;;;;;;5089206;28;20213;-64
2021/12/05 19:31:24;;;;;;;1.53;1.43;;;;;;;;;;5089828;28;20259;-65
2021/12/05 19:34:12;;;;;;;1.30;1.20;;;;;;;;;;5097810;28;20326;-64
2021/12/05 19:37:00;;;;;;;1.47;1.40;;;;;;;;;;5111631;28;20769;-64
2021/12/05 19:39:48;;;;;;;1.30;1.30;;;;;;;;;;5113457;28;20626;-64
2021/12/05 19:42:35;;;;;;;1.23;1.23;;;;;;;;;;5112966;28;20662;-64
2021/12/05 19:45:22;;;;;;;1.00;1.00;;;;;;;;;;5112465;28;20358;-64
2021/12/05 19:48:10;;;;;;;1.10;1.10;;;;;;;;;;5103585;28;20220;-64
2021/12/05 19:50:59;;;;;;;1.10;1.10;;;;;;;;;;5093049;28;20847;-64
2021/12/05 19:53:48;;;;;;;1.10;1.10;;;;;;;;;;5093346;28;20244;-64
2021/12/05 19:56:38;;;;;;;1.20;1.20;;;;;;;;;;5093812;28;20687;-64
2021/12/05 19:59:26;;;;;;;0.93;0.93;;;;;;;;;;5095506;28;20199;-64
2021/12/05 20:02:13;;;;;;;1.00;1.00;;;;;;;;;;5093141;28;20661;-64
2021/12/05 20:05:00;;;;;;;0.90;0.90;;;;;;;;;;5106306;28;20228;-64
2021/12/05 20:07:48;;;;;;;1.10;1.10;;;;;;;;;;5112599;28;20229;-64
2021/12/05 20:10:39;;;;;;;1.13;1.13;;;;;;;;;;5112529;28;20292;-64
2021/12/05 20:13:28;;;;;;;1.07;1.07;;;;;;;;;;5112466;28;20307;-64
2021/12/05 20:16:15;;;;;;;1.30;1.30;;;;;;;;;;5097690;28;20218;-64
2021/12/05 20:19:04;;;;;;;0.93;0.93;;;;;;;;;;5093507;28;20237;-64
2021/12/05 20:21:52;;;;;;;0.90;0.90;;;;;;;;;;5091774;28;20260;-64
2021/12/05 20:24:39;;;;;;;1.10;1.10;;;;;;;;;;5092260;28;20206;-64
2021/12/05 20:27:27;;;;;;;1.00;1.00;;;;;;;;;;5092382;28;20252;-65
2021/12/05 20:30:19;;;;;;;0.80;0.80;;;;;;;;;;5092055;28;20199;-64
2021/12/05 20:33:11;;;;;;;0.97;0.97;;;;;;;;;;5093234;27;20211;-65
2021/12/05 20:35:59;;;;;;;1.00;1.00;;;;;;;;;;5091777;28;20190;-64
2021/12/05 20:38:46;;;;;;;1.30;1.30;;;;;;;;;;5110675;28;20247;-63
2021/12/05 20:41:34;;;;;;;1.20;1.20;;;;;;;;;;5112059;28;20205;-64
2021/12/05 20:44:23;;;;;;;1.70;1.60;;;;;;;;;;5112263;28;20270;-64
2021/12/05 20:47:11;;;;;;;1.60;1.50;;;;;;;;;;5110093;28;20216;-64
2021/12/05 20:49:58;;;;;;;1.30;1.20;;;;;;;;;;5091937;28;20203;-64
2021/12/05 20:52:47;;;;;;;1.53;1.43;;;;;;;;;;5091960;28;20248;-64
2021/12/05 20:55:34;;;;;;;1.77;1.67;;;;;;;;;;5092418;28;20278;-64
2021/12/05 20:58:21;;;;;;;1.83;1.73;;;;;;;;;;5092424;28;20686;-64
2021/12/05 21:01:08;;;;;;;2.30;2.10;;;;;;;;;;5091223;28;20256;-64
2021/12/05 21:03:58;;;;;;;2.13;2.03;;;;;;;;;;5102702;28;20326;-64